Time;durP1;ratioP1;P1;durP2;ratioP2;P2;SDS_P1;SDS_P2;PMS_P1;PMS_P2;Temp;Humidity;BMP_temperature;BMP_pressure;BME280_temperature;BME280_humidity;BME280_pressure;Samples;Min_cycle;Max_cycle;Signal;HPM_P1;HPM_P2
2021/03/24 00:01:19;;;;;;;13.43;9.23;;;;;;;2.64;88.58;101220.70;622844;229;25034;-75
2021/03/24 00:03:47;;;;;;;11.97;8.90;;;;;;;3.11;86.60;101222.00;618368;229;33039;-74
2021/03/24 00:06:14;;;;;;;15.10;10.00;;;;;;;2.60;88.53;101223.05;623527;229;23717;-75
2021/03/24 00:08:42;;;;;;;14.67;9.70;;;;;;;2.47;88.86;101227.52;634945;225;24929;-75
2021/03/24 00:11:10;;;;;;;15.83;9.30;;;;;;;2.47;89.58;101227.52;615104;230;24932;-75
2021/03/24 00:13:38;;;;;;;12.60;8.97;;;;;;;2.31;89.52;101230.76;634008;225;24987;-75
2021/03/24 00:16:06;;;;;;;14.90;9.90;;;;;;;2.34;90.33;101237.48;634332;225;28164;-75
2021/03/24 00:18:34;;;;;;;16.57;9.50;;;;;;;2.38;90.75;101234.70;637493;225;24956;-75
2021/03/24 00:21:02;;;;;;;17.30;9.60;;;;;;;2.41;90.40;101236.78;638553;221;24950;-74
2021/03/24 00:23:30;;;;;;;13.10;9.10;;;;;;;2.59;90.35;101239.35;626087;229;24986;-75
2021/03/24 00:25:58;;;;;;;13.13;9.27;;;;;;;2.47;89.84;101235.21;628723;228;25025;-75
2021/03/24 00:28:26;;;;;;;14.83;8.73;;;;;;;2.41;90.10;101234.22;623153;229;24880;-75
2021/03/24 00:30:54;;;;;;;11.40;7.40;;;;;;;2.42;89.86;101228.17;624313;229;24964;-78
2021/03/24 00:33:22;;;;;;;11.50;8.07;;;;;;;2.24;89.66;101224.66;617389;230;28174;-77
2021/03/24 00:35:50;;;;;;;10.77;7.53;;;;;;;2.18;89.28;101228.79;635392;225;24858;-77
2021/03/24 00:38:18;;;;;;;14.33;9.53;;;;;;;2.21;89.61;101223.52;636969;224;24903;-77
2021/03/24 00:40:45;;;;;;;14.03;8.77;;;;;;;2.22;89.37;101223.45;635946;225;24943;-77
2021/03/24 00:43:13;;;;;;;14.93;8.97;;;;;;;2.21;89.11;101226.92;620810;229;24982;-77
2021/03/24 00:45:41;;;;;;;15.83;10.40;;;;;;;2.21;90.04;101223.07;616270;229;24867;-77
2021/03/24 00:48:10;;;;;;;17.60;11.30;;;;;;;2.38;90.35;101228.73;625397;225;24972;-78
2021/03/24 00:50:37;;;;;;;14.83;10.20;;;;;;;2.28;90.54;101233.47;625359;225;28144;-77
2021/03/24 00:53:05;;;;;;;17.57;11.00;;;;;;;2.27;90.09;101222.82;631250;225;27376;-77
2021/03/24 00:55:33;;;;;;;16.40;10.27;;;;;;;2.25;90.07;101222.48;625711;226;24932;-78
2021/03/24 00:58:01;;;;;;;13.87;9.93;;;;;;;2.07;89.99;101218.53;625619;225;24956;-77
2021/03/24 01:00:29;;;;;;;12.90;9.23;;;;;;;2.02;90.06;101213.23;625427;225;24992;-78
2021/03/24 01:02:57;;;;;;;14.73;9.73;;;;;;;1.89;90.07;101216.77;626611;225;24951;-75
2021/03/24 01:05:25;;;;;;;15.30;11.07;;;;;;;1.89;90.17;101222.34;636066;223;24929;-76
2021/03/24 01:07:53;;;;;;;15.40;10.20;;;;;;;1.91;90.99;101220.09;624756;230;25016;-74
2021/03/24 01:10:21;;;;;;;14.40;10.58;;;;;;;2.49;88.13;101207.73;626846;226;33038;-78
2021/03/24 01:12:49;;;;;;;18.10;11.75;;;;;;;2.42;87.39;101196.09;634298;224;32876;-78
2021/03/24 01:15:17;;;;;;;19.97;11.93;;;;;;;2.54;86.63;101195.09;632577;225;33090;-77
2021/03/24 01:17:45;;;;;;;16.75;12.00;;;;;;;2.61;85.88;101186.64;615720;229;33147;-78
2021/03/24 01:20:14;;;;;;;21.40;13.27;;;;;;;1.99;90.38;101209.52;634501;224;23777;-74
2021/03/24 01:22:42;;;;;;;17.83;11.87;;;;;;;1.57;94.78;101239.07;619740;229;25020;-77
2021/03/24 01:25:11;;;;;;;19.37;11.40;;;;;;;1.57;95.56;101233.94;632734;225;24901;-78
2021/03/24 01:27:38;;;;;;;16.33;11.40;;;;;;;1.62;95.20;101232.84;617205;229;24981;-77
2021/03/24 01:30:07;;;;;;;17.40;10.80;;;;;;;1.57;94.94;101221.96;625036;229;24985;-75
2021/03/24 01:32:35;;;;;;;16.80;9.70;;;;;;;1.51;93.83;101215.78;636449;225;24931;-75
2021/03/24 01:35:03;;;;;;;14.43;10.63;;;;;;;1.44;93.71;101211.81;639186;224;24912;-75
2021/03/24 01:37:31;;;;;;;16.07;9.70;;;;;;;1.27;94.17;101213.78;637349;225;24886;-74
2021/03/24 01:39:59;;;;;;;12.87;9.27;;;;;;;1.33;93.77;101214.80;619481;229;24963;-74
2021/03/24 01:42:27;;;;;;;16.90;11.03;;;;;;;1.36;93.25;101206.16;634904;225;24981;-76
2021/03/24 01:45:01;;;;;;;17.42;11.75;;;;;;;1.77;91.24;101202.72;631985;225;32926;-75
2021/03/24 01:47:29;;;;;;;15.97;10.90;;;;;;;1.45;92.23;101205.80;617020;230;23792;-75
2021/03/24 01:49:57;;;;;;;17.25;12.28;;;;;;;1.84;91.30;101204.59;618655;229;33095;-75
2021/03/24 01:52:25;;;;;;;15.67;11.37;;;;;;;1.63;92.26;101208.05;628970;225;23772;-75
2021/03/24 01:54:52;;;;;;;15.90;10.73;;;;;;;1.45;92.52;101202.78;619326;229;25042;-75
2021/03/24 01:57:20;;;;;;;14.03;10.00;;;;;;;1.37;92.40;101201.42;635630;225;24934;-75
2021/03/24 01:59:48;;;;;;;17.13;9.83;;;;;;;1.39;92.83;101202.19;635969;224;24921;-76
2021/03/24 02:02:17;;;;;;;21.90;10.20;;;;;;;1.52;93.38;101204.63;624399;225;24893;-75
2021/03/24 02:04:47;;;;;;;15.03;9.80;;;;;;;1.42;93.10;101202.92;634740;225;24847;-76
2021/03/24 02:07:16;;;;;;;16.47;9.70;;;;;;;1.36;92.57;101201.86;629039;225;27010;-75
2021/03/24 02:09:44;;;;;;;15.63;10.07;;;;;;;1.22;92.54;101202.03;614132;230;25976;-76
2021/03/24 02:12:12;;;;;;;16.57;10.80;;;;;;;1.42;92.47;101208.48;620806;229;28171;-75
2021/03/24 02:14:40;;;;;;;13.00;8.70;;;;;;;1.30;90.97;101191.88;636671;225;24947;-75
2021/03/24 02:17:08;;;;;;;12.93;8.90;;;;;;;0.89;92.01;101197.34;639241;222;24919;-75
2021/03/24 02:19:42;;;;;;;14.13;9.53;;;;;;;0.80;92.93;101201.08;639295;224;26996;-78
2021/03/24 02:22:10;;;;;;;26.33;9.03;;;;;;;0.82;93.58;101205.70;621780;227;24848;-77
2021/03/24 02:24:40;;;;;;;15.63;9.47;;;;;;;0.97;93.92;101206.83;641241;223;24841;-79
2021/03/24 02:27:10;;;;;;;18.77;10.37;;;;;;;1.12;93.00;101204.11;638237;223;26949;-75
2021/03/24 02:29:38;;;;;;;16.57;10.13;;;;;;;1.37;92.12;101195.01;637381;224;24899;-75
2021/03/24 02:32:07;;;;;;;17.62;11.63;;;;;;;1.78;90.70;101188.17;631160;222;33034;-75
2021/03/24 02:34:35;;;;;;;18.87;10.90;;;;;;;1.61;91.21;101190.16;638405;224;23777;-78
2021/03/24 02:37:03;;;;;;;18.57;12.15;;;;;;;1.93;90.35;101178.53;610669;229;32956;-75
2021/03/24 02:39:31;;;;;;;17.83;11.10;;;;;;;1.31;91.77;101181.18;617058;229;23798;-77
2021/03/24 02:41:59;;;;;;;15.73;9.73;;;;;;;1.09;93.51;101192.27;627371;228;24865;-75
2021/03/24 02:44:27;;;;;;;21.03;10.73;;;;;;;1.14;92.80;101194.22;627986;228;24932;-77
2021/03/24 02:46:55;;;;;;;16.13;10.17;;;;;;;0.83;93.97;101194.56;637096;225;25967;-77
2021/03/24 02:49:25;;;;;;;18.37;10.53;;;;;;;0.78;95.46;101190.52;636224;225;24886;-77
2021/03/24 02:51:51;;;;;;;15.27;8.97;;;;;;;0.94;95.44;101197.99;637271;221;24992;-77
2021/03/24 02:54:19;;;;;;;15.32;10.53;;;;;;;1.43;92.78;101189.66;631048;225;32748;-77
2021/03/24 02:56:47;;;;;;;17.07;10.00;;;;;;;1.14;93.77;101191.66;638600;223;23768;-77
2021/03/24 02:59:15;;;;;;;17.80;10.20;;;;;;;1.17;93.78;101196.66;637516;225;24955;-77
2021/03/24 03:01:43;;;;;;;17.05;11.50;;;;;;;1.80;91.80;101182.52;631753;221;32916;-75
2021/03/24 03:04:11;;;;;;;16.80;10.70;;;;;;;1.21;93.47;101185.00;623489;230;23819;-77
2021/03/24 03:06:39;;;;;;;17.87;10.60;;;;;;;1.15;93.39;101192.05;636742;224;24946;-77
2021/03/24 03:09:07;;;;;;;18.50;12.60;;;;;;;1.36;92.60;101195.45;613238;230;43773;-77
2021/03/24 03:11:36;;;;;;;17.00;11.30;;;;;;;1.03;95.03;101205.33;624135;228;23743;-77
2021/03/24 03:14:05;;;;;;;19.70;12.70;;;;;;;1.48;93.89;101200.09;613034;229;32973;-77
2021/03/24 03:16:33;;;;;;;19.30;12.07;;;;;;;1.14;94.09;101196.78;614743;230;23805;-77
2021/03/24 03:19:01;;;;;;;16.77;11.10;;;;;;;1.09;95.36;101201.23;618141;229;24958;-77
2021/03/24 03:21:30;;;;;;;22.93;10.60;;;;;;;0.91;96.19;101203.23;626073;228;24966;-77
2021/03/24 03:23:58;;;;;;;17.25;11.35;;;;;;;1.38;94.26;101197.50;624102;228;33021;-75
2021/03/24 03:26:26;;;;;;;15.10;10.00;;;;;;;0.96;93.95;101192.36;628246;226;23802;-77
2021/03/24 03:28:54;;;;;;;14.97;9.73;;;;;;;1.09;93.52;101202.52;637599;224;24981;-78
2021/03/24 03:31:22;;;;;;;16.20;10.60;;;;;;;1.04;93.82;101203.60;621123;228;24917;-78
2021/03/24 03:33:50;;;;;;;21.07;12.78;;;;;;;1.18;94.54;101211.12;630999;224;33205;-77
2021/03/24 03:36:18;;;;;;;17.60;11.63;;;;;;;0.89;94.74;101208.88;637658;225;23766;-78
2021/03/24 03:38:46;;;;;;;20.90;11.37;;;;;;;0.85;95.30;101213.73;616443;229;24944;-77
2021/03/24 03:41:13;;;;;;;17.63;11.70;;;;;;;0.80;95.40;101202.36;620451;226;24975;-78
2021/03/24 03:43:41;;;;;;;19.57;12.95;;;;;;;1.21;94.00;101199.09;627417;225;32856;-77
2021/03/24 03:46:09;;;;;;;17.90;12.13;;;;;;;0.86;94.21;101196.19;626609;225;23804;-77
2021/03/24 03:48:37;;;;;;;15.10;9.90;;;;;;;0.72;95.42;101194.61;626539;226;24937;-77
2021/03/24 03:51:05;;;;;;;17.87;9.63;;;;;;;0.69;95.11;101194.70;625818;225;24925;-77
2021/03/24 03:53:34;;;;;;;17.23;12.15;;;;;;;1.01;94.37;101188.36;620601;225;33293;-78
2021/03/24 03:56:02;;;;;;;16.60;10.47;;;;;;;0.89;94.20;101190.50;627231;225;23699;-79
2021/03/24 03:58:32;;;;;;;18.50;11.20;;;;;;;0.79;94.80;101190.91;631096;225;27102;-78
2021/03/24 04:01:01;;;;;;;17.23;10.73;;;;;;;0.78;95.04;101178.55;615896;229;24872;-78
2021/03/24 04:03:29;;;;;;;18.48;12.28;;;;;;;1.13;93.23;101178.47;614381;230;33096;-78
2021/03/24 04:05:58;;;;;;;15.50;10.20;;;;;;;0.63;93.72;101176.58;615134;230;23825;-77
2021/03/24 04:08:26;;;;;;;17.90;11.23;;;;;;;0.70;95.51;101188.69;635415;225;24852;-77
2021/03/24 04:10:53;;;;;;;18.67;10.40;;;;;;;0.53;95.77;101194.00;637972;221;24878;-78
2021/03/24 04:13:21;;;;;;;16.47;9.87;;;;;;;0.52;95.63;101197.89;637988;225;27074;-78
2021/03/24 04:15:50;;;;;;;17.80;9.07;;;;;;;0.43;94.89;101191.41;637950;224;24815;-78
2021/03/24 04:18:19;;;;;;;17.98;11.30;;;;;;;0.88;93.19;101189.28;632681;224;32784;-77
2021/03/24 04:20:47;;;;;;;17.80;10.30;;;;;;;0.39;95.73;101188.55;614661;230;23813;-78
2021/03/24 04:23:15;;;;;;;19.60;11.33;;;;;;;0.45;95.29;101201.14;624512;228;24943;-78
2021/03/24 04:25:43;;;;;;;19.82;12.60;;;;;;;1.23;92.79;101181.47;615277;229;33013;-79
2021/03/24 04:28:11;;;;;;;21.43;11.60;;;;;;;0.76;93.17;101182.07;619369;229;23812;-78
2021/03/24 04:30:39;;;;;;;16.65;11.43;;;;;;;1.08;91.93;101185.48;630594;220;43749;-78
2021/03/24 04:33:07;;;;;;;16.93;12.15;;;;;;;1.28;91.21;101182.14;612997;229;33025;-77
2021/03/24 04:35:34;;;;;;;14.50;10.77;;;;;;;0.50;91.93;101178.77;629780;225;23857;-77
2021/03/24 04:38:02;;;;;;;13.60;9.40;;;;;;;0.36;92.33;101187.39;635069;225;24938;-77
2021/03/24 04:40:31;;;;;;;16.57;12.00;;;;;;;0.85;91.88;101181.73;632254;225;33770;-77
2021/03/24 04:42:59;;;;;;;18.73;11.70;;;;;;;0.21;92.75;101184.11;633341;225;23810;-77
2021/03/24 04:45:31;;;;;;;13.87;9.93;;;;;;;0.16;93.50;101200.08;631842;224;25004;-77
2021/03/24 04:47:59;;;;;;;14.50;9.20;;;;;;;0.26;94.21;101197.11;635196;224;25979;-77
2021/03/24 04:50:27;;;;;;;11.67;8.07;;;;;;;0.08;94.14;101193.11;636682;221;24883;-77
2021/03/24 04:52:55;;;;;;;12.93;8.80;;;;;;;-0.05;93.15;101196.54;619992;229;24889;-77
2021/03/24 04:55:23;;;;;;;14.53;10.03;;;;;;;-0.27;94.63;101203.29;636274;224;26993;-77
2021/03/24 04:57:53;;;;;;;18.73;11.50;;;;;;;0.39;92.93;101203.07;630624;224;32759;-77
2021/03/24 05:00:25;;;;;;;18.20;10.77;;;;;;;0.21;93.07;101202.85;618339;229;23794;-77
2021/03/24 05:02:53;;;;;;;15.50;9.60;;;;;;;0.01;92.67;101199.34;620771;229;24975;-77
2021/03/24 05:05:21;;;;;;;17.87;11.60;;;;;;;0.13;94.43;101211.67;630374;223;43441;-77
2021/03/24 05:07:49;;;;;;;16.00;11.70;;;;;;;0.24;93.87;101207.85;618030;229;32950;-77
2021/03/24 05:10:18;;;;;;;13.57;10.40;;;;;;;-0.35;95.62;101210.75;614223;230;23785;-77
2021/03/24 05:12:46;;;;;;;14.47;9.03;;;;;;;-0.40;97.56;101225.41;635671;225;24809;-78
2021/03/24 05:15:15;;;;;;;16.50;11.65;;;;;;;0.11;96.48;101216.84;632564;225;32765;-78
2021/03/24 05:17:43;;;;;;;16.80;10.20;;;;;;;0.01;96.95;101215.96;638995;225;23777;-78
2021/03/24 05:20:12;;;;;;;18.27;12.40;;;;;;;0.57;94.90;101216.05;630348;225;32794;-77
2021/03/24 05:22:41;;;;;;;15.00;10.60;;;;;;;0.23;96.24;101213.86;619814;226;23734;-78
2021/03/24 05:25:13;;;;;;;17.90;10.87;;;;;;;0.10;96.19;101212.63;618188;229;24965;-77
2021/03/24 05:27:42;;;;;;;16.50;9.87;;;;;;;0.00;96.98;101213.85;618785;229;24956;-76
2021/03/24 05:30:13;;;;;;;16.77;11.12;;;;;;;0.60;95.15;101201.02;631878;225;33021;-77
2021/03/24 05:32:41;;;;;;;16.02;11.83;;;;;;;0.94;93.68;101199.27;631941;221;32920;-77
2021/03/24 05:35:18;;;;;;;14.57;10.70;;;;;;;0.36;94.84;101199.35;638512;225;23760;-77
2021/03/24 05:37:46;;;;;;;15.73;9.27;;;;;;;0.23;95.21;101211.75;624902;230;25247;-77
2021/03/24 05:40:21;;;;;;;14.80;8.97;;;;;;;0.43;95.13;101211.88;634067;225;24925;-77
2021/03/24 05:42:50;;;;;;;14.20;9.17;;;;;;;0.50;94.90;101212.03;638945;225;24933;-77
2021/03/24 05:45:24;;;;;;;17.17;9.80;;;;;;;0.37;95.35;101207.41;634655;225;24827;-76
2021/03/24 05:47:59;;;;;;;16.80;11.40;;;;;;;1.12;93.31;101201.55;624609;225;32927;-76
2021/03/24 05:50:38;;;;;;;18.63;9.80;;;;;;;0.64;93.54;101205.12;636744;221;24890;-77
2021/03/24 05:53:12;;;;;;;12.90;8.57;;;;;;;0.65;93.77;101205.95;618842;229;24961;-78
2021/03/24 05:55:43;;;;;;;15.17;10.37;;;;;;;0.74;93.43;101203.06;617898;230;25007;-77
2021/03/24 05:58:18;;;;;;;15.93;9.60;;;;;;;0.57;92.71;101207.09;635906;224;24927;-77
2021/03/24 06:00:46;;;;;;;12.23;8.83;;;;;;;0.68;93.14;101215.63;640360;220;24878;-77
2021/03/24 06:03:17;;;;;;;15.77;9.20;;;;;;;0.46;93.29;101219.88;619462;229;24945;-77
2021/03/24 06:06:08;;;;;;;14.17;9.27;;;;;;;0.50;94.14;101227.83;636401;224;24916;-77
2021/03/24 06:09:04;;;;;;;18.40;10.33;;;;;;;0.43;94.95;101236.19;635409;225;25240;-76
2021/03/24 06:12:02;;;;;;;16.60;11.47;;;;;;;0.99;93.64;101244.77;626119;225;43965;-77
2021/03/24 06:14:39;;;;;;;17.55;11.90;;;;;;;1.25;91.68;101238.61;613504;228;32967;-77
2021/03/24 06:17:20;;;;;;;16.00;10.17;;;;;;;0.95;94.56;101247.48;638249;225;24877;-77
2021/03/24 06:19:52;;;;;;;15.55;11.18;;;;;;;1.51;92.72;101247.83;632154;225;32908;-77
2021/03/24 06:22:24;;;;;;;17.90;11.50;;;;;;;1.37;93.72;101249.66;622598;225;23733;-77
2021/03/24 06:24:57;;;;;;;16.10;9.90;;;;;;;1.27;94.87;101248.79;637792;225;24831;-77
2021/03/24 06:27:35;;;;;;;16.05;10.80;;;;;;;2.10;92.92;101247.07;624211;225;32791;-77
2021/03/24 06:30:16;;;;;;;15.07;10.37;;;;;;;1.75;93.51;101239.14;615033;229;23734;-77
2021/03/24 06:32:52;;;;;;;15.97;10.67;;;;;;;1.88;93.35;101236.06;620946;229;24979;-76
2021/03/24 06:35:26;;;;;;;14.70;9.90;;;;;;;2.17;92.99;101230.98;632433;225;24813;-77
2021/03/24 06:38:03;;;;;;;17.90;10.77;;;;;;;2.32;91.74;101233.70;635458;225;24851;-77
2021/03/24 06:40:44;;;;;;;26.30;15.93;;;;;;;2.22;91.96;101231.15;616953;230;28184;-78
2021/03/24 06:43:36;;;;;;;27.40;16.47;;;;;;;2.28;92.40;101236.48;629942;225;24889;-77
2021/03/24 06:46:11;;;;;;;33.23;19.10;;;;;;;2.40;92.35;101246.67;623497;228;24839;-77
2021/03/24 06:48:46;;;;;;;21.27;13.10;;;;;;;2.21;93.19;101250.02;628609;228;24984;-77
2021/03/24 06:51:28;;;;;;;21.37;12.70;;;;;;;2.32;93.99;101250.84;614107;230;24957;-77
2021/03/24 06:54:18;;;;;;;18.60;13.53;;;;;;;2.74;92.39;101248.10;620515;228;32928;-77
2021/03/24 06:56:57;;;;;;;19.77;12.70;;;;;;;2.51;94.15;101249.57;627719;228;23833;-78
2021/03/24 06:59:37;;;;;;;14.57;10.17;;;;;;;2.58;95.31;101258.23;634946;225;24903;-79
2021/03/24 07:02:20;;;;;;;17.37;10.30;;;;;;;2.69;95.43;101248.77;616169;229;24929;-78
2021/03/24 07:05:09;;;;;;;16.70;10.93;;;;;;;2.98;95.09;101246.98;629323;225;24868;-78
2021/03/24 07:07:46;;;;;;;20.10;10.90;;;;;;;3.41;93.89;101246.70;625768;225;24891;-77
2021/03/24 07:10:20;;;;;;;17.57;11.57;;;;;;;3.41;93.54;101246.70;634299;224;24896;-78
2021/03/24 07:12:57;;;;;;;17.03;11.80;;;;;;;3.69;92.89;101245.73;637928;224;24896;-78
2021/03/24 07:15:29;;;;;;;17.97;10.63;;;;;;;3.79;91.93;101249.95;635415;224;24828;-77
2021/03/24 07:18:22;;;;;;;15.77;10.47;;;;;;;3.93;92.06;101253.95;627713;228;24953;-77
2021/03/24 07:21:17;;;;;;;13.53;10.00;;;;;;;4.07;91.94;101254.55;627940;228;29064;-77
2021/03/24 07:24:01;;;;;;;12.53;9.20;;;;;;;4.29;91.45;101259.44;628339;228;24984;-78
2021/03/24 07:26:36;;;;;;;13.30;9.70;;;;;;;4.61;90.62;101258.58;628375;227;25977;-77
2021/03/24 07:29:07;;;;;;;17.00;10.70;;;;;;;4.44;90.38;101253.49;626802;228;24984;-77
2021/03/24 07:31:40;;;;;;;13.20;9.90;;;;;;;4.44;90.79;101258.64;620416;229;25960;-76
2021/03/24 07:34:14;;;;;;;19.00;11.93;;;;;;;4.71;89.96;101268.78;626756;228;24859;-77
2021/03/24 07:36:48;;;;;;;18.60;12.80;;;;;;;4.85;89.55;101270.63;617171;229;24867;-77
2021/03/24 07:39:39;;;;;;;19.50;12.80;;;;;;;5.32;88.66;101257.70;610693;230;33020;-77
2021/03/24 07:42:22;;;;;;;21.45;14.68;;;;;;;5.53;88.25;101254.85;631860;221;32789;-77
2021/03/24 07:45:00;;;;;;;22.13;13.60;;;;;;;5.26;88.22;101260.64;626209;227;23776;-77
2021/03/24 07:47:32;;;;;;;24.00;15.50;;;;;;;5.29;89.35;101264.33;629538;225;24924;-78
2021/03/24 07:50:19;;;;;;;24.10;16.10;;;;;;;5.34;89.61;101261.02;627298;228;24931;-77
2021/03/24 07:52:54;;;;;;;22.10;15.37;;;;;;;5.31;89.09;101266.36;626818;227;24946;-78
2021/03/24 07:55:25;;;;;;;19.90;13.10;;;;;;;5.51;88.76;101261.84;634107;225;24914;-77
2021/03/24 07:57:55;;;;;;;25.63;16.40;;;;;;;5.41;88.73;101258.12;616940;229;25164;-78
2021/03/24 08:00:24;;;;;;;20.70;15.73;;;;;;;5.64;88.21;101257.66;617563;229;24961;-77
2021/03/24 08:02:57;;;;;;;24.60;15.40;;;;;;;5.73;88.15;101254.53;616210;229;25060;-78
2021/03/24 08:05:30;;;;;;;22.00;16.32;;;;;;;5.70;85.90;101245.68;624542;225;32913;-77
2021/03/24 08:08:01;;;;;;;24.57;17.60;;;;;;;5.96;86.35;101248.08;628998;225;23976;-77
2021/03/24 08:10:31;;;;;;;26.77;16.87;;;;;;;5.80;86.18;101251.98;634929;222;24889;-77
2021/03/24 08:13:08;;;;;;;26.52;17.50;;;;;;;6.34;84.57;101239.34;618443;228;33128;-77
2021/03/24 08:15:52;;;;;;;30.10;18.00;;;;;;;6.49;85.10;101238.42;616277;229;23780;-74
2021/03/24 08:18:15;;;;;;;23.07;16.23;;;;;;;6.63;84.35;101241.91;632074;225;26200;-74
2021/03/24 08:20:49;;;;;;;23.73;15.90;;;;;;;6.64;83.45;101234.52;625978;228;24980;-75
2021/03/24 08:23:41;;;;;;;29.50;17.20;;;;;;;6.88;83.34;101231.69;633859;224;24929;-75
2021/03/24 08:26:14;;;;;;;25.57;17.62;;;;;;;6.67;82.15;101226.11;634045;224;32893;-74
2021/03/24 08:28:44;;;;;;;23.97;17.40;;;;;;;6.06;84.77;101243.21;635137;225;26981;-77
2021/03/24 08:31:23;;;;;;;24.77;16.77;;;;;;;6.53;83.62;101244.22;614177;230;24960;-77
2021/03/24 08:33:54;;;;;;;24.17;16.47;;;;;;;6.70;83.33;101244.01;626406;225;24843;-78
2021/03/24 08:36:37;;;;;;;23.10;16.70;;;;;;;7.01;82.52;101239.04;626537;225;24939;-78
2021/03/24 08:39:15;;;;;;;23.27;16.90;;;;;;;6.74;83.35;101245.47;626466;225;25187;-77
2021/03/24 08:42:11;;;;;;;28.12;18.87;;;;;;;7.36;82.31;101243.73;621554;225;32915;-75
2021/03/24 08:44:44;;;;;;;25.53;17.63;;;;;;;7.54;81.52;101227.47;631479;225;23793;-74
2021/03/24 08:47:12;;;;;;;23.13;16.93;;;;;;;7.76;80.50;101220.42;636936;225;25410;-75
2021/03/24 08:49:44;;;;;;;27.40;18.65;;;;;;;8.09;79.06;101216.84;631029;225;32936;-75
2021/03/24 08:52:09;;;;;;;29.43;18.77;;;;;;;8.36;78.88;101212.04;619661;230;23832;-75
2021/03/24 08:54:47;;;;;;;27.30;18.57;;;;;;;8.49;77.72;101201.19;634127;225;24945;-75
2021/03/24 08:57:18;;;;;;;26.23;18.50;;;;;;;8.72;77.13;101192.59;631822;225;24948;-76
2021/03/24 08:59:48;;;;;;;24.03;16.57;;;;;;;8.72;78.82;101202.97;632547;225;24874;-75
2021/03/24 09:02:20;;;;;;;27.43;17.60;;;;;;;9.19;76.75;101198.74;636019;225;24923;-74
2021/03/24 09:04:58;;;;;;;24.23;15.53;;;;;;;9.25;74.58;101189.67;616797;229;24955;-74
2021/03/24 09:07:30;;;;;;;23.90;15.77;;;;;;;9.20;75.48;101179.16;615616;229;24953;-74
2021/03/24 09:10:07;;;;;;;22.63;15.53;;;;;;;9.29;73.76;101177.67;625860;228;25200;-75
2021/03/24 09:12:35;;;;;;;21.57;16.15;;;;;;;9.82;73.70;101173.63;630645;221;33008;-75
2021/03/24 09:15:03;;;;;;;24.77;15.63;;;;;;;10.08;73.44;101170.82;631006;225;22806;-75
2021/03/24 09:17:37;;;;;;;21.70;14.77;;;;;;;10.27;71.84;101172.84;628960;226;24849;-76
2021/03/24 09:20:50;;;;;;;21.30;13.93;;;;;;;10.25;72.35;101165.16;636243;225;24994;-75
2021/03/24 09:23:58;;;;;;;21.97;14.47;;;;;;;9.80;73.07;101167.73;634895;225;24917;-75
2021/03/24 09:27:07;;;;;;;20.23;13.57;;;;;;;10.45;71.09;101156.30;630286;225;24918;-75
2021/03/24 09:29:40;;;;;;;22.10;13.57;;;;;;;10.21;70.81;101156.41;629345;225;27082;-75
2021/03/24 09:32:17;;;;;;;19.73;13.87;;;;;;;9.83;72.01;101156.27;638182;223;26014;-75
2021/03/24 09:34:58;;;;;;;19.60;13.70;;;;;;;9.84;71.87;101156.63;619346;228;24966;-75
2021/03/24 09:37:26;;;;;;;21.17;14.23;;;;;;;10.10;71.97;101157.23;628373;224;23944;-75
2021/03/24 09:39:54;;;;;;;19.77;13.70;;;;;;;10.59;70.23;101147.75;628370;225;24913;-77
2021/03/24 09:42:22;;;;;;;20.70;14.20;;;;;;;10.92;67.52;101140.78;624697;225;32913;-76
2021/03/24 09:44:52;;;;;;;26.53;15.07;;;;;;;10.96;69.73;101144.30;635021;225;23858;-77
2021/03/24 09:47:23;;;;;;;19.93;13.43;;;;;;;10.97;69.52;101137.31;634555;223;24966;-75
2021/03/24 09:49:54;;;;;;;19.00;12.70;;;;;;;11.49;67.18;101124.73;618644;229;24951;-75
2021/03/24 09:52:24;;;;;;;18.40;11.50;;;;;;;11.80;67.65;101122.17;630675;225;23953;-75
2021/03/24 09:55:25;;;;;;;17.17;12.47;;;;;;;12.15;65.87;101116.08;635406;225;24998;-75
2021/03/24 09:58:15;;;;;;;18.80;13.60;;;;;;;12.35;64.10;101105.20;610287;229;32990;-75
2021/03/24 10:00:43;;;;;;;17.80;12.70;;;;;;;12.24;66.48;101103.17;620731;230;23795;-74
2021/03/24 10:03:12;;;;;;;18.93;13.30;;;;;;;12.91;64.14;101097.20;630224;225;32751;-75
2021/03/24 10:05:40;;;;;;;16.00;11.40;;;;;;;13.01;66.01;101106.69;637423;225;24835;-75
2021/03/24 10:08:08;;;;;;;21.20;12.80;;;;;;;13.66;62.48;101099.02;632732;225;32923;-75
2021/03/24 10:10:36;;;;;;;21.23;12.87;;;;;;;13.11;63.30;101092.80;624079;229;24031;-75
2021/03/24 10:13:04;;;;;;;17.67;13.23;;;;;;;12.86;63.98;101097.63;633935;226;29147;-75
2021/03/24 10:15:32;;;;;;;13.70;10.70;;;;;;;12.84;64.10;101104.77;634974;225;24821;-75
2021/03/24 10:18:02;;;;;;;14.33;11.10;;;;;;;13.35;64.12;101097.09;638157;224;24889;-74
2021/03/24 10:20:30;;;;;;;16.83;9.93;;;;;;;13.37;63.35;101097.77;636473;221;24874;-75
2021/03/24 10:22:59;;;;;;;16.20;10.73;;;;;;;13.11;63.48;101083.66;636809;223;24924;-75
2021/03/24 10:25:30;;;;;;;16.57;12.05;;;;;;;13.53;63.11;101091.50;617980;231;33193;-74
2021/03/24 10:27:58;;;;;;;16.13;12.10;;;;;;;13.14;62.11;101090.73;631475;225;22943;-75
2021/03/24 10:30:28;;;;;;;17.20;10.70;;;;;;;13.13;63.64;101085.65;634188;225;24934;-75
2021/03/24 10:33:01;;;;;;;14.77;10.77;;;;;;;13.31;62.27;101086.11;637182;225;25370;-74
2021/03/24 10:35:30;;;;;;;13.53;10.23;;;;;;;14.02;63.87;101093.41;632982;225;27115;-74
2021/03/24 10:37:58;;;;;;;17.07;12.90;;;;;;;13.81;61.21;101086.30;613779;229;24980;-75
2021/03/24 10:40:26;;;;;;;17.10;12.40;;;;;;;14.21;60.99;101081.52;611684;230;33083;-74
2021/03/24 10:42:54;;;;;;;17.30;12.27;;;;;;;13.72;61.56;101078.00;637458;225;23968;-74
2021/03/24 10:45:23;;;;;;;19.37;12.67;;;;;;;13.44;61.35;101074.05;637627;224;24934;-75
2021/03/24 10:47:52;;;;;;;19.97;13.87;;;;;;;13.91;62.89;101073.50;633772;224;32778;-74
2021/03/24 10:50:22;;;;;;;17.60;13.90;;;;;;;14.00;60.72;101076.22;630278;225;32801;-74
2021/03/24 10:53:05;;;;;;;18.65;14.45;;;;;;;13.81;63.31;101076.66;615595;225;33008;-74
2021/03/24 10:55:33;;;;;;;15.90;11.67;;;;;;;13.00;63.36;101076.31;618257;229;23840;-74
2021/03/24 10:58:06;;;;;;;16.33;12.30;;;;;;;13.07;64.45;101083.91;617711;229;28052;-77
2021/03/24 11:00:34;;;;;;;20.87;12.40;;;;;;;12.93;63.41;101076.52;634801;225;24918;-75
2021/03/24 11:03:06;;;;;;;22.07;12.97;;;;;;;12.96;64.28;101072.83;638392;225;24887;-76
2021/03/24 11:05:38;;;;;;;17.83;13.00;;;;;;;13.04;65.98;101084.20;617738;229;24918;-76
2021/03/24 11:08:07;;;;;;;16.77;12.70;;;;;;;13.24;64.47;101076.38;621816;228;32988;-76
2021/03/24 11:10:38;;;;;;;19.67;12.30;;;;;;;13.15;64.43;101070.17;634599;225;23802;-76
2021/03/24 11:13:07;;;;;;;18.63;13.03;;;;;;;13.34;64.58;101054.95;624853;229;23945;-74
2021/03/24 11:15:45;;;;;;;18.57;12.37;;;;;;;13.42;61.20;101058.17;634621;224;27056;-73
2021/03/24 11:18:13;;;;;;;17.33;12.30;;;;;;;13.39;62.40;101048.02;622824;229;24959;-73
2021/03/24 11:20:42;;;;;;;18.53;13.13;;;;;;;13.29;67.08;101061.92;634887;221;28110;-76
2021/03/24 11:23:10;;;;;;;19.40;12.23;;;;;;;13.30;62.63;101047.06;620379;229;24973;-76
2021/03/24 11:25:38;;;;;;;21.83;11.87;;;;;;;13.22;64.07;101045.15;634820;226;24932;-76
2021/03/24 11:28:07;;;;;;;20.33;12.00;;;;;;;13.20;64.35;101044.47;626880;228;24950;-73
2021/03/24 11:30:36;;;;;;;18.50;12.40;;;;;;;13.20;63.41;101035.81;620172;229;23898;-74
2021/03/24 11:33:07;;;;;;;16.80;11.80;;;;;;;13.34;63.12;101037.48;630131;225;32774;-76
2021/03/24 11:35:35;;;;;;;17.10;12.37;;;;;;;13.54;61.61;101030.90;631034;225;32924;-76
2021/03/24 11:38:23;;;;;;;17.50;12.07;;;;;;;13.49;62.98;101027.88;638421;224;24844;-77